Tiempo atmosférico en la estación meteorológica de Cala, Huelva (618 m.)



Fecha
DESCASC
Temp. máxima en grados centígrados (hora)
DESCASC
Temp. mínima en grados centígrados (hora)
DESCASC
Temp. media en grados centígrados
DESCASC
Racha de viento máxima en m/sg (hora)
DESCASC
Velocidad máxima media en intervalos de 10 minutos(hora)
DESCASC
Precipitaciones diarias en mm
DESCASC
Precipitaciones de 00:00 a 06:00 en mm
DESCASC
Precipitaciones de 06:00 a 12:00 en mm
DESCASC
Precipitaciones de 12:00 a 18:00 en mm
DESCASC
Precipitaciones de 18:00 a 24:00 en mm
DESCASC
31-05-2020 29.7 (14:10) 14.9 (06:40) 22.3 5.83 (15:30) 1.39 (16:30) 0 0 0 0 0
30-05-2020 31.7 (17:00) 14.9 (07:30) 23.3 5.28 (15:50) 2.22 (15:00) 0 0 0 0 0
29-05-2020 31.4 (15:40) 14.4 (06:30) 22.9 6.67 (21:40) 3.61 (21:40) 0 0 0 0 0
28-05-2020 30.5 (17:20) 14.2 (00:00) 22.3 6.11 (11:50) 2.5 (11:10) 0 0 0 0 0
27-05-2020 30.3 (17:10) 14.8 (00:00) 22.5 6.94 (17:50) 2.22 (17:30) 0 0 0 0 0
26-05-2020 30.6 (17:20) 14.4 (00:00) 22.5 8.06 (14:10) 3.33 (12:10) 0 0 0 0 0
25-05-2020 32.5 (17:50) 16.2 (00:00) 24.4 3.89 (12:40) 1.67 (21:40) 0 0 0 0 0
24-05-2020 33.5 (17:20) 18.3 (00:00) 25.9 5 (01:20) 2.22 (01:20) 0 0 0 0 0
23-05-2020 33.4 (17:30) 17.3 (00:00) 25.4 4.17 (20:20) 2.22 (20:20) 0 0 0 0 0
22-05-2020 32 (17:50) 16.3 (00:00) 24.1 5 (23:10) 2.78 (23:00) 0 0 0 0 0
21-05-2020 31.2 (18:10) 15.3 (00:00) 23.3 3.89 (18:30) 2.22 (21:30) 0 0 0 0 0
20-05-2020 30.8 (17:00) 15 (00:00) 22.9 9.72 (13:20) 2.78 (13:40) 0 0 0 0 0
19-05-2020 29.2 (18:00) 13 (00:00) 21.1 5.83 (22:30) 2.78 (22:20) 0 0 0 0 0
18-05-2020 27.5 (17:20) 10.5 (00:00) 19 6.39 (18:20) 2.78 (18:20) 0 0 0 0 0
17-05-2020 23.6 (12:20) 9.8 (00:00) 16.7 6.11 (17:40) 2.5 (17:50) 0 0 0 0 0
16-05-2020 21.8 (16:40) 8.6 (00:00) 15.2 5.56 (22:30) 3.06 (22:20) 0 0 0 0 0
15-05-2020 20.3 (16:10) 10.1 (00:00) 15.2 5.56 (03:00) 3.33 (17:00) 7 0.6 0 2.6 3.8
14-05-2020 14 (18:50) 7.8 (00:00) 10.9 6.39 (09:30) 1.67 (14:50) 8.6 0.2 1 7 0.4
13-05-2020 17.5 (17:00) 9.2 (00:00) 13.3 8.33 (19:40) 2.78 (19:40) 3.8 0 0 2.2 1.6
12-05-2020 17.1 (15:20) 9.5 (00:00) 13.3 6.67 (13:00) 2.5 (17:20) 4.8 0 0 3.4 1.4
11-05-2020 19.4 (15:40) 11.4 (00:00) 15.4 11.39 (08:30) 4.44 (08:40) 10.2 0.4 8.4 1.4 0
10-05-2020 18.2 (15:00) 9.2 (00:00) 13.7 8.89 (20:30) 4.72 (18:10) 6.8 0 4.4 2.4 0
09-05-2020 20.9 (13:40) 11.4 (00:00) 16.1 9.72 (17:20) 3.06 (17:20) 20.6 0 0 4.8 15.8
08-05-2020 24.4 (14:30) 11.4 (00:00) 17.9 7.5 (12:40) 2.5 (16:40) 0 0 0 0 0
07-05-2020 27.8 (18:00) 13.4 (00:00) 20.6 5.83 (13:40) 2.5 (00:50) 0 0 0 0 0
06-05-2020 25.1 (18:00) 11 (00:00) 18.1 5.56 (13:20) 3.33 (11:30) 0 0 0 0 0
05-05-2020 25.6 (18:20) 10.4 (00:00) 18 7.5 (22:10) 3.61 (01:20) 0 0 0 0 0

Gráficas

Temp. máximas Temp. mínimas Temp. medias Precipitaciones Rachas de viento máximas Velocidades máximas media en intervalos de 10 minutos

Datos horarios

Fecha y hora oficial Temperatura (ºC) Velocidad del viento (km/h) Dirección del viento Racha (km/h) Dirección de racha Precipitación (mm) Presión (hPa) Tendencia (hPa) Humedad (%)
2020-06-03 23:00:00 19.5 6 Sudoeste 16 Sudoeste 0 -- -- 70
2020-06-03 22:00:00 21.3 5 Sudoeste 17 Sudoeste 0 -- -- 62
2020-06-03 21:00:00 23.6 9 Oeste 28 Oeste 0 -- -- 45
2020-06-03 20:00:00 25.9 9 Oeste 24 Oeste 0 -- -- 40
2020-06-03 19:00:00 27.5 12 Oeste 25 Oeste 0 -- -- 37
2020-06-03 18:00:00 28.3 10 Noroeste 27 Sudoeste 0 -- -- 39
2020-06-03 17:00:00 28.7 9 Sudoeste 25 Sudoeste 0 -- -- 38
2020-06-03 16:00:00 27.6 7 Sudoeste 29 Oeste 0 -- -- 44
2020-06-03 15:00:00 27.3 8 Sudoeste 24 Sudoeste 0 -- -- 43
2020-06-03 14:00:00 27.1 8 Oeste 27 Noroeste 0 -- -- 46
2020-06-03 13:00:00 24.8 5 Oeste 22 Oeste 0 -- -- 53
2020-06-03 12:00:00 24.7 9 Sudoeste 20 Sudoeste 0 -- -- 52
2020-06-03 11:00:00 23.7 6 Oeste 14 Sudoeste 0 -- -- 55
2020-06-03 10:00:00 20.3 0 Calma 5 Nordeste 0 -- -- 69
2020-06-03 09:00:00 16.4 2 Norte 5 Oeste 0 -- -- 78
2020-06-03 08:00:00 14 0 Calma 6 Oeste 0 -- -- 91
2020-06-03 07:00:00 13.7 3 Noroeste 5 Oeste 0 -- -- 88
2020-06-03 06:00:00 14.1 3 Oeste 6 Oeste 0 -- -- 88
2020-06-03 05:00:00 14.7 3 Oeste 11 Oeste 0 -- -- 84
2020-06-03 04:00:00 15.2 5 Oeste 14 Oeste 0 -- -- 82
2020-06-03 03:00:00 16.1 8 Oeste 17 Oeste 0 -- -- 79
2020-06-03 02:00:00 16.3 3 Oeste 8 Oeste 0 -- -- 79
2020-06-03 01:00:00 17.1 7 Oeste 9 Oeste 0 -- -- 76
2020-06-03 00:00:00 17.8 4 Oeste 11 Oeste 0 -- -- 74
2020-06-02 23:00:00 18.7 6 Oeste 13 Sudoeste 0 -- -- 67
2020-06-02 22:00:00 20.2 3 Sudoeste 10 Sudoeste 0 -- -- 61
2020-06-02 21:00:00 22.3 5 Sudoeste 13 Sudoeste 0 -- -- 52
2020-06-02 20:00:00 24.1 2 Sur 11 Sudoeste 0 -- -- 49
2020-06-02 19:00:00 24.6 2 Sur 20 Oeste 0 -- -- 47
2020-06-02 18:00:00 24.7 2 Sudeste 18 Sudoeste 0 -- -- 50
2020-06-02 17:00:00 24.7 3 Sur 27 Sudoeste 0 -- -- 50
2020-06-02 16:00:00 26.4 5 Sur 23 Oeste 0 -- -- 47
2020-06-02 15:00:00 26.7 5 Sur 17 Sur 0 -- -- 46
2020-06-02 14:00:00 25.6 4 Sudeste 18 Sudoeste 0 -- -- 48
2020-06-02 13:00:00 24.2 4 Sudoeste 18 Sudoeste 0 -- -- 50
2020-06-02 12:00:00 22.8 4 Sur 14 Oeste 0 -- -- 55
2020-06-02 11:00:00 21.7 4 Sudoeste 16 Sudoeste 0 -- -- 59
2020-06-02 10:00:00 18.8 0 Calma 9 Sudoeste 0 -- -- 68
2020-06-02 09:00:00 15.1 0 Calma 6 Sudoeste 0 -- -- 90
2020-06-02 08:00:00 13.1 0 Calma 0 Calma 0 -- -- 95
2020-06-02 07:00:00 12.6 0 Calma 0 Calma 0 -- -- 91
2020-06-02 06:00:00 12.8 0 Calma 2 Oeste 0 -- -- 91
2020-06-02 05:00:00 13.1 0 Calma 3 Noroeste 0 -- -- 91
2020-06-02 04:00:00 13.7 0 Calma 2 Noroeste 0 -- -- 87
2020-06-02 03:00:00 14.8 0 Calma 3 Sudeste 0 -- -- 87
2020-06-02 02:00:00 15.3 0 Calma 0 Calma 0 -- -- 86
2020-06-02 01:00:00 15.9 0 Calma 2 Sudeste 0 -- -- 84
2020-06-02 00:00:00 16.7 0 Calma 10 Sudoeste 0 -- -- 82
2020-06-01 23:00:00 17.8 4 Sudoeste 9 Sudoeste 0 -- -- 79
2020-06-01 22:00:00 18.9 4 Sudoeste 8 Sudoeste 0 -- -- 75
2020-06-01 21:00:00 20.5 0 Calma 8 Oeste 0 -- -- 69
2020-06-01 20:00:00 21.9 0 Calma 9 Sur 0 -- -- 64
2020-06-01 19:00:00 23.1 3 Sur 12 Sudoeste 0 -- -- 59
2020-06-01 18:00:00 23.2 2 Sur 13 Sudoeste 0 -- -- 60
2020-06-01 17:00:00 23.2 3 Sur 20 Sudoeste 0 -- -- 59
2020-06-01 16:00:00 22.6 3 Sur 19 Sudoeste 0 -- -- 62
2020-06-01 15:00:00 22.4 5 Sudoeste 19 Oeste 0 -- -- 63
2020-06-01 14:00:00 20.2 2 Sur 14 Sudoeste 0 -- -- 70
2020-06-01 13:00:00 19.3 3 Sur 13 Sudoeste 0 -- -- 69
2020-06-01 12:00:00 18.5 3 Sur 8 Sudeste 0 -- -- 71
2020-06-01 11:00:00 17.6 3 Sur 13 Este 0 -- -- 76
2020-06-01 10:00:00 17.5 0 Calma 9 Sudeste 0 -- -- 79
2020-06-01 09:00:00 15.4 4 Este 8 Este 0 -- -- 85
2020-06-01 08:00:00 13.1 0 Calma 5 Sudeste 0 -- -- 91
2020-06-01 07:00:00 12.8 0 Calma 5 Este 0 -- -- 85
2020-06-01 06:00:00 13.4 3 Este 10 Este 0 -- -- 86
2020-06-01 05:00:00 13.6 0 Calma 4 Este 0 -- -- 83
2020-06-01 04:00:00 13.6 0 Calma 3 Sudeste 0 -- -- 83
2020-06-01 03:00:00 14 0 Calma 3 Noroeste 0 -- -- 80
2020-06-01 02:00:00 14.6 0 Calma 2 Noroeste 0 -- -- 78
2020-06-01 01:00:00 15.2 0 Calma 3 Norte 0 -- -- 76
2020-06-01 00:00:00 16.2 0 Calma 2 Noroeste 0 -- -- 71
2020-05-31 23:00:00 17.3 0 Calma 3 Sudoeste 0 -- -- 64
2020-05-31 22:00:00 19.1 0 Calma 4 Sudeste 0 -- -- 60
2020-05-31 21:00:00 20.8 2 Sudeste 14 Sur 0 -- -- 52
2020-05-31 20:00:00 22.6 4 Sudeste 13 Sudeste 0 -- -- 44
2020-05-31 19:00:00 23.9 2 Sur 13 Sur 0 -- -- 47
2020-05-31 18:00:00 24 2 Sur 13 Sudeste 0 -- -- 46
2020-05-31 17:00:00 26.2 4 Sur 18 Sudeste 0 -- -- 41
2020-05-31 16:00:00 27.9 3 Sudeste 21 Este 0 -- -- 33
2020-05-31 15:00:00 28.8 4 Sur 19 Sudoeste 0 -- -- 30
2020-05-31 14:00:00 29.6 4 Sudoeste 16 Oeste 0 -- -- 26
2020-05-31 13:00:00 28.4 2 Este 12 Este 0 -- -- 33
2020-05-31 12:00:00 25.1 3 Este 7 Este 0 -- -- 40
2020-05-31 11:00:00 23.1 4 Este 9 Este 0 -- -- 39
2020-05-31 10:00:00 20.2 3 Este 9 Este 0 -- -- 45
2020-05-31 09:00:00 18 0 Calma 2 Nordeste 0 -- -- 65
2020-05-31 08:00:00 15.9 0 Calma 2 Sur 0 -- -- 71
2020-05-31 07:00:00 15 0 Calma 2 Noroeste 0 -- -- 68
2020-05-31 06:00:00 15.1 0 Calma 2 Sudoeste 0 -- -- 68
2020-05-31 05:00:00 15.6 0 Calma 2 Sudoeste 0 -- -- 63
2020-05-31 04:00:00 16.3 0 Calma 2 Noroeste 0 -- -- 61
2020-05-31 03:00:00 16.6 2 Noroeste 4 Noroeste 0 -- -- 53
2020-05-31 02:00:00 17.3 0 Calma 2 Este 0 -- -- 51
2020-05-31 01:00:00 18.3 0 Calma 3 Noroeste 0 -- -- 47
2020-05-31 00:00:00 19.8 0 Calma 3 Noroeste 0 -- -- 48
2020-05-30 23:00:00 21.3 0 Calma 9 Sudeste 0 -- -- 45
2020-05-30 22:00:00 23.8 0 Calma 2 Norte 0 -- -- 42
2020-05-30 21:00:00 26.6 0 Calma 5 Sudeste 0 -- -- 36
2020-05-30 20:00:00 28.5 3 Sudeste 16 Sudeste 0 -- -- 32
2020-05-30 19:00:00 30.9 5 Sudeste 17 Este 0 -- -- 25
2020-05-30 18:00:00 31.5 5 Sudeste 15 Sudeste 0 -- -- 28
2020-05-30 17:00:00 31.7 5 Este 17 Este 0 -- -- 29
2020-05-30 16:00:00 31.3 7 Sudeste 19 Este 0 -- -- 30
2020-05-30 15:00:00 30.5 8 Sudeste 19 Este 0 -- -- 33
2020-05-30 14:00:00 30.8 4 Sudeste 18 Este 0 -- -- 36
2020-05-30 13:00:00 29.8 6 Este 18 Sudeste 0 -- -- 38
2020-05-30 12:00:00 29.1 2 Sudeste 10 Sudeste 0 -- -- 39
2020-05-30 11:00:00 25.6 2 Sudeste 9 Oeste 0 -- -- 51
2020-05-30 10:00:00 20.2 0 Calma 4 Nordeste 0 -- -- 68
2020-05-30 09:00:00 16.3 2 Nordeste 4 Nordeste 0 -- -- 77
2020-05-30 08:00:00 14.9 0 Calma 3 Sudeste 0 -- -- 82
2020-05-30 07:00:00 15.2 0 Calma 4 Noroeste 0 -- -- 82
2020-05-30 06:00:00 15.9 0 Calma 2 Noroeste 0 -- -- 81
2020-05-30 05:00:00 16.5 0 Calma 5 Noroeste 0 -- -- 79
2020-05-30 04:00:00 17.3 3 Noroeste 5 Noroeste 0 -- -- 73
2020-05-30 03:00:00 18.2 0 Calma 4 Noroeste 0 -- -- 67
2020-05-30 02:00:00 19.4 2 Norte 6 Oeste 0 -- -- 64
2020-05-30 01:00:00 20.7 0 Calma 5 Noroeste 0 -- -- 63
2020-05-30 00:00:00 22.3 5 Noroeste 19 Sudoeste 0 -- -- 57
2020-05-29 23:00:00 23.3 12 Sudoeste 18 Oeste 0 -- -- 55
2020-05-29 22:00:00 24.7 12 Oeste 24 Sudoeste 0 -- -- 52
2020-05-29 21:00:00 27 10 Oeste 18 Sudoeste 0 -- -- 46
2020-05-29 20:00:00 29.9 3 Sudoeste 13 Sudoeste 0 -- -- 36
2020-05-29 19:00:00 31.4 6 Sudoeste 18 Sudoeste 0 -- -- 34
2020-05-29 18:00:00 30.7 3 Sudoeste 8 Nordeste 0 -- -- 36
2020-05-29 17:00:00 30.4 0 Calma 10 Sur 0 -- -- 38
2020-05-29 16:00:00 31.2 2 Sudoeste 16 Sudoeste 0 -- -- 37
2020-05-29 15:00:00 30.9 3 Sudeste 11 Sudeste 0 -- -- 36
2020-05-29 14:00:00 30.1 5 Norte 13 Este 0 -- -- 40
2020-05-29 13:00:00 29.1 2 Sudeste 10 Sudeste 0 -- -- 38
2020-05-29 12:00:00 27.9 4 Sudeste 12 Sudeste 0 -- -- 38
2020-05-29 11:00:00 26 3 Sudeste 10 Nordeste 0 -- -- 44
2020-05-29 10:00:00 22.2 3 Este 6 Sudeste 0 -- -- 53
2020-05-29 09:00:00 18.3 0 Calma 3 Este 0 -- -- 66
2020-05-29 08:00:00 15.3 0 Calma 4 Oeste 0 -- -- 84
2020-05-29 07:00:00 14.4 0 Calma 2 Noroeste 0 -- -- 85
2020-05-29 06:00:00 14.7 0 Calma 4 Noroeste 0 -- -- 83
2020-05-29 05:00:00 15.5 0 Calma 2 Noroeste 0 -- -- 79
2020-05-29 04:00:00 16.3 0 Calma 6 Noroeste 0 -- -- 75
2020-05-29 03:00:00 17.4 0 Calma 4 Nordeste 0 -- -- 70
2020-05-29 02:00:00 18.4 0 Calma 5 Noroeste 0 -- -- 65
2020-05-29 01:00:00 18.9 0 Calma 0 Calma 0 -- -- 64
2020-05-29 00:00:00 19.8 0 Calma 3 Oeste 0 -- -- 63
2020-05-28 23:00:00 20.8 0 Calma 0 Calma 0 -- -- 59
2020-05-28 22:00:00 23 0 Calma 2 Sudoeste 0 -- -- 54
2020-05-28 21:00:00 25.8 0 Calma 9 Sudeste 0 -- -- 45
2020-05-28 20:00:00 28.2 3 Sudeste 14 Sudeste 0 -- -- 40
2020-05-28 19:00:00 30 4 Sudeste 12 Este 0 -- -- 37
2020-05-28 18:00:00 30.3 3 Sudeste 13 Nordeste 0 -- -- 36
2020-05-28 17:00:00 30.2 3 Oeste 16 Este 0 -- -- 37
2020-05-28 16:00:00 29.9 5 Sudeste 17 Sudeste 0 -- -- 36
2020-05-28 15:00:00 29.4 7 Este 22 Este 0 -- -- 35
2020-05-28 14:00:00 28.9 5 Sudeste 16 Este 0 -- -- 42
2020-05-28 13:00:00 27.5 6 Sudeste 21 Este 0 -- -- 50
2020-05-28 12:00:00 26.1 7 Sudeste 22 Sudeste 0 -- -- 48
2020-05-28 11:00:00 24.8 5 Este 19 Este 0 -- -- 49
2020-05-28 10:00:00 21.6 8 Este 17 Este 0 -- -- 56
2020-05-28 09:00:00 18 2 Este 6 Nordeste 0 -- -- 64
2020-05-28 08:00:00 15 0 Calma 3 Este 0 -- -- 75
2020-05-28 07:00:00 14.4 0 Calma 3 Noroeste 0 -- -- 76
2020-05-28 06:00:00 14.6 2 Noroeste 4 Noroeste 0 -- -- 71
2020-05-28 05:00:00 14.9 0 Calma 4 Noroeste 0 -- -- 71
2020-05-28 04:00:00 15.4 0 Calma 3 Noroeste 0 -- -- 72
2020-05-28 03:00:00 16.4 0 Calma 2 Noroeste 0 -- -- 69
2020-05-28 02:00:00 17.8 0 Calma 9 Este 0 -- -- 62
2020-05-28 01:00:00 18.9 3 Sudeste 7 Este 0 -- -- 56
2020-05-28 00:00:00 19.8 3 Sudeste 6 Este 0 -- -- 54
2020-05-27 23:00:00 21 0 Calma 2 Oeste 0 -- -- 56
2020-05-27 22:00:00 23.1 0 Calma 4 Sudeste 0 -- -- 52
2020-05-27 21:00:00 25.4 0 Calma 14 Este 0 -- -- 46
2020-05-27 20:00:00 27.6 3 Sudeste 17 Sudeste 0 -- -- 41
2020-05-27 19:00:00 28.6 5 Sudeste 23 Sudeste 0 -- -- 39
2020-05-27 18:00:00 29.2 5 Sudeste 25 Sudeste 0 -- -- 39
2020-05-27 17:00:00 30.2 5 Sudeste 20 Sudeste 0 -- -- 39
2020-05-27 16:00:00 29.8 5 Sudeste 19 Este 0 -- -- 38
2020-05-27 15:00:00 30.1 3 Sudeste 23 Sudeste 0 -- -- 37
2020-05-27 14:00:00 29.1 5 Este 20 Este 0 -- -- 43
2020-05-27 13:00:00 27.7 6 Este 18 Este 0 -- -- 46
2020-05-27 12:00:00 26.6 5 Sudeste 22 Este 0 -- -- 50
2020-05-27 11:00:00 24.4 6 Sudeste 19 Este 0 -- -- 54
2020-05-27 10:00:00 21.1 5 Este 15 Este 0 -- -- 57
2020-05-27 09:00:00 17.9 3 Este 9 Este 0 -- -- 65
2020-05-27 08:00:00 16 0 Calma 8 Este 0 -- -- 72
2020-05-27 07:00:00 15.1 2 Este 5 Este 0 -- -- 72
2020-05-27 06:00:00 14.9 0 Calma 3 Sudeste 0 -- -- 78
2020-05-27 05:00:00 15.2 0 Calma 3 Noroeste 0 -- -- 75
2020-05-27 04:00:00 16 0 Calma 2 Noroeste 0 -- -- 71
2020-05-27 03:00:00 16.9 0 Calma 3 Noroeste 0 -- -- 66
2020-05-27 02:00:00 17.7 0 Calma 4 Este 0 -- -- 63
2020-05-27 01:00:00 18.8 0 Calma 7 Este 0 -- -- 62
2020-05-27 00:00:00 19.6 0 Calma 3 Este 0 -- -- 59
2020-05-26 23:00:00 20.4 0 Calma 5 Oeste 0 -- -- 55
2020-05-26 22:00:00 22.4 0 Calma 3 Oeste 0 -- -- 51
2020-05-26 21:00:00 25.7 0 Calma 10 Este 0 -- -- 41
2020-05-26 20:00:00 28 3 Sudeste 15 Sudeste 0 -- -- 34
2020-05-26 19:00:00 29.7 4 Sudeste 15 Sudeste 0 -- -- 31
2020-05-26 18:00:00 30.4 3 Sur 17 Sudeste 0 -- -- 32
2020-05-26 17:00:00 30.5 4 Sudeste 18 Este 0 -- -- 32
2020-05-26 16:00:00 30.2 3 Sudeste 19 Este 0 -- -- 38
2020-05-26 15:00:00 29.5 6 Este 29 Este 0 -- -- 34
2020-05-26 14:00:00 28.6 8 Sudeste 24 Sudeste 0 -- -- 34
2020-05-26 13:00:00 27.5 8 Sudeste 25 Este 0 -- -- 38
2020-05-26 12:00:00 25.5 10 Este 25 Este 0 -- -- 37
2020-05-26 11:00:00 24.6 7 Sudeste 20 Este 0 -- -- 38
2020-05-26 10:00:00 21.1 8 Este 19 Este 0 -- -- 45
2020-05-26 09:00:00 17.9 3 Nordeste 12 Este 0 -- -- 53
2020-05-26 08:00:00 15.1 3 Nordeste 6 Nordeste 0 -- -- 78
2020-05-26 07:00:00 14.7 0 Calma 0 Calma 0 -- -- 84
2020-05-26 06:00:00 15.4 0 Calma 3 Oeste 0 -- -- 82
2020-05-26 05:00:00 16.4 2 Nordeste 6 Este 0 -- -- 79
2020-05-26 04:00:00 17.1 0 Calma 6 Nordeste 0 -- -- 78
2020-05-26 03:00:00 18.2 3 Nordeste 6 Nordeste 0 -- -- 75
2020-05-26 02:00:00 19.3 3 Este 7 Este 0 -- -- 71
2020-05-26 01:00:00 20 0 Calma 3 Noroeste 0 -- -- 69
2020-05-26 00:00:00 21.3 0 Calma 3 Noroeste 0 -- -- 67
2020-05-25 23:00:00 23 3 Noroeste 4 Noroeste 0 -- -- 61
2020-05-25 22:00:00 25.4 0 Calma 12 Noroeste 0 -- -- 55
2020-05-25 21:00:00 28.3 0 Calma 5 Sudoeste 0 -- -- 47
2020-05-25 20:00:00 30.9 0 Calma 7 Sudoeste 0 -- -- 39
2020-05-25 19:00:00 32.4 0 Calma 9 Oeste 0 -- -- 33
2020-05-25 18:00:00 32.5 3 Sudoeste 10 Sudoeste 0 -- -- 33
2020-05-25 17:00:00 32.1 2 Sur 12 Oeste 0 -- -- 33
2020-05-25 16:00:00 31.5 4 Sudoeste 12 Oeste 0 -- -- 37
2020-05-25 15:00:00 30.1 3 Sudeste 9 Sudeste 0 -- -- 40
2020-05-25 14:00:00 30 4 Sudeste 11 Sudeste 0 -- -- 40
2020-05-25 13:00:00 29.3 5 Este 14 Este 0 -- -- 44
2020-05-25 12:00:00 28.4 5 Sudeste 12 Sudeste 0 -- -- 45
2020-05-25 11:00:00 26.5 3 Sudeste 10 Sudeste 0 -- -- 54
2020-05-25 10:00:00 22.9 3 Sudeste 8 Este 0 -- -- 60
2020-05-25 09:00:00 19.3 0 Calma 2 Noroeste 0 -- -- 64
2020-05-25 08:00:00 16.7 0 Calma 2 Oeste 0 -- -- 81
2020-05-25 07:00:00 16.3 0 Calma 2 Noroeste 0 -- -- 79
2020-05-25 06:00:00 16.7 0 Calma 0 Calma 0 -- -- 77
2020-05-25 05:00:00 17.2 0 Calma 3 Noroeste 0 -- -- 72
2020-05-25 04:00:00 18.2 0 Calma 2 Noroeste 0 -- -- 70
2020-05-25 03:00:00 19.3 3 Noroeste 4 Noroeste 0 -- -- 64
2020-05-25 02:00:00 20.3 0 Calma 5 Este 0 -- -- 62
2020-05-25 01:00:00 20.4 3 Noroeste 5 Noroeste 0 -- -- 54
2020-05-25 00:00:00 21.7 4 Noroeste 12 Oeste 0 -- -- 56
2020-05-24 23:00:00 23 0 Calma 0 Calma 0 -- -- 61
2020-05-24 22:00:00 24.7 0 Calma 3 Noroeste 0 -- -- 51
2020-05-24 21:00:00 27.6 0 Calma 3 Sudoeste 0 -- -- 46
2020-05-24 20:00:00 29.9 0 Calma 7 Sudoeste 0 -- -- 42
2020-05-24 19:00:00 31.4 4 Sudoeste 12 Sudoeste 0 -- -- 39
2020-05-24 18:00:00 33.3 4 Sudeste 10 Sur 0 -- -- 35
2020-05-24 17:00:00 33.2 3 Sudoeste 12 Sudoeste 0 -- -- 36
2020-05-24 16:00:00 32.4 4 Sudoeste 13 Oeste 0 -- -- 36
2020-05-24 15:00:00 31.6 3 Sudeste 16 Sudeste 0 -- -- 39
2020-05-24 14:00:00 31.6 3 Sudeste 17 Este 0 -- -- 43
2020-05-24 13:00:00 31.8 2 Sudeste 14 Este 0 -- -- 49
2020-05-24 12:00:00 31 5 Este 11 Este 0 -- -- 48
2020-05-24 11:00:00 29.1 3 Sudeste 9 Este 0 -- -- 51
2020-05-24 10:00:00 25.1 3 Este 5 Este 0 -- -- 53
2020-05-24 09:00:00 20.9 0 Calma 4 Nordeste 0 -- -- 67
2020-05-24 08:00:00 18.5 0 Calma 3 Norte 0 -- -- 75
2020-05-24 07:00:00 18.9 0 Calma 3 Noroeste 0 -- -- 73
2020-05-24 06:00:00 20.2 2 Noroeste 6 Norte 0 -- -- 67
2020-05-24 05:00:00 21.6 4 Norte 11 Noroeste 0 -- -- 61
2020-05-24 04:00:00 22.2 5 Noroeste 12 Norte 0 -- -- 60
2020-05-24 03:00:00 22.9 3 Noroeste 15 Norte 0 -- -- 58
2020-05-24 02:00:00 23.6 5 Nordeste 18 Nordeste 0 -- -- 57
2020-05-24 01:00:00 23.1 3 Este 13 Norte 0 -- -- 58
2020-05-24 00:00:00 23.9 4 Noroeste 11 Norte 0 -- -- 48
2020-05-23 23:00:00 24 4 Noroeste 12 Noroeste 0 -- -- 47
2020-05-23 22:00:00 25.6 4 Noroeste 12 Oeste 0 -- -- 41
2020-05-23 21:00:00 28.4 5 Noroeste 15 Noroeste 0 -- -- 42
2020-05-23 20:00:00 31.4 5 Noroeste 12 Oeste 0 -- -- 37
2020-05-23 19:00:00 33.1 3 Oeste 12 Sudoeste 0 -- -- 32
2020-05-23 18:00:00 33.3 3 Sudoeste 12 Oeste 0 -- -- 30
2020-05-23 17:00:00 33.2 5 Noroeste 13 Oeste 0 -- -- 31
2020-05-23 16:00:00 32.8 4 Oeste 14 Oeste 0 -- -- 32
2020-05-23 15:00:00 32.7 3 Oeste 10 Sudeste 0 -- -- 36
2020-05-23 14:00:00 32 3 Sudeste 9 Sudeste 0 -- -- 38
2020-05-23 13:00:00 31.5 0 Calma 10 Este 0 -- -- 35
2020-05-23 12:00:00 30.1 3 Este 13 Este 0 -- -- 40
2020-05-23 11:00:00 28.7 4 Este 12 Este 0 -- -- 42
2020-05-23 10:00:00 24.7 2 Nordeste 8 Norte 0 -- -- 53
2020-05-23 09:00:00 21.4 3 Norte 11 Nordeste 0 -- -- 61
2020-05-23 08:00:00 18.7 3 Noroeste 12 Norte 0 -- -- 70
2020-05-23 07:00:00 17.3 4 Noroeste 11 Norte 0 -- -- 71
2020-05-23 06:00:00 17.6 4 Norte 11 Noroeste 0 -- -- 67
2020-05-23 05:00:00 18 4 Noroeste 10 Noroeste 0 -- -- 66
2020-05-23 04:00:00 19.3 2 Noroeste 12 Noroeste 0 -- -- 61
2020-05-23 03:00:00 19.7 5 Noroeste 10 Oeste 0 -- -- 60
2020-05-23 02:00:00 19.8 4 Noroeste 12 Oeste 0 -- -- 63
2020-05-23 01:00:00 21 3 Noroeste 9 Oeste 0 -- -- 65
2020-05-23 00:00:00 22.6 7 Noroeste 18 Noroeste 0 -- -- 59
2020-05-22 23:00:00 23.4 10 Noroeste 17 Noroeste 0 -- -- 58
2020-05-22 22:00:00 24.5 7 Noroeste 15 Noroeste 0 -- -- 52
2020-05-22 21:00:00 27.2 2 Sudoeste 5 Oeste 0 -- -- 42
2020-05-22 20:00:00 29.7 0 Calma 7 Este 0 -- -- 36
2020-05-22 19:00:00 31.5 2 Este 9 Nordeste 0 -- -- 35
2020-05-22 18:00:00 31.9 4 Este 9 Este 0 -- -- 33
2020-05-22 17:00:00 31.6 4 Norte 13 Este 0 -- -- 34
2020-05-22 16:00:00 31 6 Nordeste 13 Noroeste 0 -- -- 31
2020-05-22 15:00:00 31 5 Este 14 Este 0 -- -- 36
2020-05-22 14:00:00 30.6 3 Nordeste 12 Este 0 -- -- 40
2020-05-22 13:00:00 30.3 4 Este 14 Este 0 -- -- 39
2020-05-22 12:00:00 29.7 3 Este 10 Este 0 -- -- 40
2020-05-22 11:00:00 27.5 3 Este 7 Nordeste 0 -- -- 42
2020-05-22 10:00:00 23.3 0 Calma 6 Norte 0 -- -- 47
2020-05-22 09:00:00 19.1 3 Noroeste 6 Noroeste 0 -- -- 55
2020-05-22 08:00:00 16.7 5 Noroeste 9 Norte 0 -- -- 67
2020-05-22 07:00:00 16.6 4 Noroeste 6 Noroeste 0 -- -- 72
2020-05-22 06:00:00 17.5 4 Noroeste 8 Noroeste 0 -- -- 66
2020-05-22 05:00:00 18.4 5 Noroeste 9 Noroeste 0 -- -- 63
2020-05-22 04:00:00 19.4 5 Noroeste 13 Noroeste 0 -- -- 59
2020-05-22 03:00:00 19.8 4 Norte 12 Norte 0 -- -- 58
2020-05-22 02:00:00 20 5 Noroeste 12 Norte 0 -- -- 60
2020-05-22 01:00:00 20.3 0 Calma 12 Norte 0 -- -- 62
2020-05-22 00:00:00 20.5 5 Noroeste 10 Norte 0 -- -- 55
2020-05-21 23:00:00 21.6 3 Oeste 11 Oeste 0 -- -- 53
2020-05-21 22:00:00 24 5 Oeste 12 Sudoeste 0 -- -- 46
2020-05-21 21:00:00 26.7 6 Sudoeste 11 Sudoeste 0 -- -- 38
2020-05-21 20:00:00 29.4 6 Noroeste 10 Oeste 0 -- -- 38
2020-05-21 19:00:00 30.8 2 Oeste 14 Oeste 0 -- -- 35
2020-05-21 18:00:00 31.1 3 Oeste 11 Sudoeste 0 -- -- 36
2020-05-21 17:00:00 30.7 3 Sudeste 11 Sudeste 0 -- -- 39
2020-05-21 16:00:00 30.4 3 Sur 12 Sudoeste 0 -- -- 35
2020-05-21 15:00:00 30.8 3 Sur 12 Sudoeste 0 -- -- 35
2020-05-21 14:00:00 30.4 4 Oeste 11 Sudoeste 0 -- -- 42
2020-05-21 13:00:00 29.7 2 Sudeste 9 Sudeste 0 -- -- 44
2020-05-21 12:00:00 29 3 Este 12 Este 0 -- -- 47
2020-05-21 11:00:00 26.8 4 Este 9 Este 0 -- -- 48
2020-05-21 10:00:00 22.6 3 Sudeste 7 Este 0 -- -- 64
2020-05-21 09:00:00 18.3 0 Calma 0 Calma 0 -- -- 75
2020-05-21 08:00:00 15.8 0 Calma 0 Calma 0 -- -- 85
2020-05-21 07:00:00 15.4 0 Calma 2 Noroeste 0 -- -- 83
2020-05-21 06:00:00 16 0 Calma 5 Noroeste 0 -- -- 80
2020-05-21 05:00:00 16.6 4 Noroeste 7 Noroeste 0 -- -- 78
2020-05-21 04:00:00 17.2 5 Noroeste 8 Noroeste -- -- -- 76
2020-05-21 03:00:00 18.1 5 Norte 8 Noroeste 0 -- -- 69
2020-05-21 02:00:00 19.2 0 Calma 10 Oeste 0 -- -- 64
2020-05-21 01:00:00 20.3 5 Noroeste 13 Norte 0 -- -- 60
2020-05-21 00:00:00 20.5 5 Noroeste 12 Oeste 0 -- -- 61
2020-05-20 23:00:00 21.5 5 Noroeste 10 Oeste 0 -- -- 55
2020-05-20 22:00:00 23.1 5 Noroeste 10 Noroeste 0 -- -- 53
2020-05-20 21:00:00 26 5 Noroeste 16 Oeste 0 -- -- 47
2020-05-20 20:00:00 28.3 6 Oeste 15 Oeste 0 -- -- 42
2020-05-20 19:00:00 30 6 Oeste 17 Oeste 0 -- -- 38
2020-05-20 18:00:00 30.3 6 Oeste 18 Noroeste 0 -- -- 37
2020-05-20 17:00:00 30.8 2 Sur 15 Oeste 0 -- -- 36
2020-05-20 16:00:00 29.5 5 Sudoeste 17 Sudoeste 0 -- -- 38
2020-05-20 15:00:00 30.2 3 Noroeste 16 Oeste 0 -- -- 45
2020-05-20 14:00:00 30.2 3 Sudoeste 35 Oeste 0 -- -- 40
2020-05-20 13:00:00 30 3 Sudoeste 10 Nordeste 0 -- -- 42
2020-05-20 12:00:00 29 3 Este 10 Sudeste 0 -- -- 41
2020-05-20 11:00:00 27 6 Este 14 Este 0 -- -- 43
2020-05-20 10:00:00 22.8 2 Nordeste 5 Norte 0 -- -- 54
2020-05-20 09:00:00 18.3 0 Calma 5 Norte 0 -- -- 66
2020-05-20 08:00:00 15.5 3 Noroeste 4 Norte 0 -- -- 76
2020-05-20 07:00:00 15 2 Noroeste 4 Noroeste 0 -- -- 78
2020-05-20 06:00:00 15.3 0 Calma 9 Oeste 0 -- -- 74
2020-05-20 05:00:00 16.1 4 Noroeste 10 Oeste 0 -- -- 72
2020-05-20 04:00:00 17 4 Noroeste 8 Oeste 0 -- -- 68
2020-05-20 03:00:00 16.9 5 Noroeste 8 Noroeste 0 -- -- 66
2020-05-20 02:00:00 17.6 2 Noroeste 9 Oeste 0 -- -- 66
2020-05-20 01:00:00 18.7 3 Noroeste 7 Oeste 0 -- -- 66
2020-05-20 00:00:00 20.1 4 Oeste 14 Oeste 0 -- -- 62
2020-05-19 23:00:00 21.4 9 Oeste 21 Oeste 0 -- -- 60
2020-05-19 22:00:00 22.6 7 Sudoeste 19 Sudoeste 0 -- -- 52
2020-05-19 21:00:00 25.1 3 Sudoeste 5 Sudoeste 0 -- -- 45
2020-05-19 20:00:00 27.3 0 Calma 10 Oeste 0 -- -- 42
2020-05-19 19:00:00 29 4 Sudoeste 10 Nordeste 0 -- -- 37
2020-05-19 18:00:00 29.2 5 Este 11 Este 0 -- -- 37
2020-05-19 17:00:00 28.8 2 Sur 13 Sudeste 0 -- -- 42
2020-05-19 16:00:00 28.8 5 Sudeste 15 Este 0 -- -- 37
2020-05-19 15:00:00 28.6 3 Este 12 Este 0 -- -- 41
2020-05-19 14:00:00 28.5 6 Sudeste 17 Oeste 0 -- -- 38
2020-05-19 13:00:00 28.5 3 Sudeste 14 Sudeste 0 -- -- 41
2020-05-19 12:00:00 27.4 3 Este 11 Sudeste 0 -- -- 43
2020-05-19 11:00:00 25.6 3 Este 8 Sudeste 0 -- -- 48
2020-05-19 10:00:00 21.2 3 Este 5 Este 0 -- -- 56
2020-05-19 09:00:00 16.6 3 Noroeste 6 Noroeste 0 -- -- 66
2020-05-19 08:00:00 13.4 0 Calma 7 Noroeste 0 -- -- 82
2020-05-19 07:00:00 13.2 6 Noroeste 9 Oeste 0 -- -- 81
2020-05-19 06:00:00 13.6 6 Noroeste 9 Noroeste 0 -- -- 80
2020-05-19 05:00:00 14.2 7 Noroeste 9 Noroeste 0 -- -- 79
2020-05-19 04:00:00 14.9 4 Noroeste 6 Noroeste 0 -- -- 78
2020-05-19 03:00:00 15.1 5 Noroeste 8 Noroeste 0 -- -- 75
2020-05-19 02:00:00 15.3 4 Noroeste 9 Noroeste 0 -- -- 70
2020-05-19 01:00:00 16.4 0 Calma 9 Norte 0 -- -- 65
2020-05-19 00:00:00 17.8 3 Noroeste 14 Noroeste 0 -- -- 54
2020-05-18 23:00:00 18.8 5 Noroeste 13 Noroeste 0 -- -- 55
2020-05-18 22:00:00 20.4 4 Noroeste 7 Oeste 0 -- -- 57
2020-05-18 21:00:00 23.3 4 Noroeste 11 Noroeste 0 -- -- 48
2020-05-18 20:00:00 25.5 6 Norte 18 Sudoeste 0 -- -- 37
2020-05-18 19:00:00 27.1 6 Oeste 23 Noroeste 0 -- -- 35
2020-05-18 18:00:00 27.3 6 Noroeste 17 Oeste 0 -- -- 40
2020-05-18 17:00:00 27.3 5 Noroeste 18 Noroeste 0 -- -- 39
2020-05-18 16:00:00 26.6 5 Noroeste 22 Sudoeste 0 -- -- 46
2020-05-18 15:00:00 26.2 5 Sudoeste 15 Oeste 0 -- -- 47
2020-05-18 14:00:00 25.6 2 Sur 12 Oeste 0 -- -- 45
2020-05-18 13:00:00 25.2 4 Oeste 13 Sudeste 0 -- -- 46
2020-05-18 12:00:00 24.8 2 Sudoeste 9 Sudeste 0 -- -- 45
2020-05-18 11:00:00 22.6 2 Este 6 Este 0 -- -- 53
2020-05-18 10:00:00 17.9 0 Calma 4 Sudeste 0 -- -- 64
2020-05-18 09:00:00 13.5 0 Calma 0 Calma 0 -- -- 81
2020-05-18 08:00:00 10.8 0 Calma 0 Calma 0 -- -- 92
2020-05-18 07:00:00 10.7 0 Calma 5 Noroeste 0 -- -- 89
2020-05-18 06:00:00 10.9 2 Noroeste 6 Noroeste 0 -- -- 87
2020-05-18 05:00:00 11.1 0 Calma 4 Noroeste 0 -- -- 87
2020-05-18 04:00:00 11.9 0 Calma 5 Noroeste 0 -- -- 83
2020-05-18 03:00:00 12.6 3 Noroeste 6 Noroeste 0 -- -- 79
2020-05-18 02:00:00 13 3 Noroeste 6 Noroeste 0 -- -- 82
2020-05-18 01:00:00 14.1 0 Calma 12 Nordeste 0 -- -- 78
2020-05-18 00:00:00 15 3 Noroeste 8 Oeste 0 -- -- 82
2020-05-17 23:00:00 16.3 0 Calma 6 Noroeste 0 -- -- 81
2020-05-17 22:00:00 17 3 Noroeste 6 Noroeste 0 -- -- 80
2020-05-17 21:00:00 18.5 0 Calma 5 Sudoeste 0 -- -- 71
2020-05-17 20:00:00 20.5 0 Calma 7 Sudeste 0 -- -- 66
2020-05-17 19:00:00 21.2 2 Sur 14 Sudeste 0 -- -- 62
2020-05-17 18:00:00 21.3 6 Sudeste 22 Sudeste 0 -- -- 59
2020-05-17 17:00:00 23.2 6 Oeste 18 Noroeste 0 -- -- 50
2020-05-17 16:00:00 22.7 6 Sudoeste 15 Oeste 0 -- -- 56
2020-05-17 15:00:00 22.7 4 Sudoeste 10 Sudoeste 0 -- -- 57
2020-05-17 14:00:00 20.4 0 Calma 10 Sudoeste 0 -- -- 70
2020-05-17 13:00:00 22.9 0 Calma 18 Oeste 0 -- -- 60
2020-05-17 12:00:00 22.8 3 Este 12 Este 0 -- -- 60
2020-05-17 11:00:00 20.5 5 Este 15 Este 0 -- -- 63
2020-05-17 10:00:00 16.5 0 Calma 7 Nordeste 0 -- -- 80
2020-05-17 09:00:00 12.7 3 Norte 6 Nordeste 0 -- -- 91
2020-05-17 08:00:00 10.3 0 Calma 2 Oeste 0 -- -- 97
2020-05-17 07:00:00 9.9 0 Calma 2 Oeste 0 -- -- 94
2020-05-17 06:00:00 10.2 0 Calma 3 Noroeste 0 -- -- 94
2020-05-17 05:00:00 10.6 0 Calma 3 Noroeste 0 -- -- 93
2020-05-17 04:00:00 11.3 0 Calma 4 Oeste 0 -- -- 91
2020-05-17 03:00:00 12.3 0 Calma 2 Noroeste 0 -- -- 90
2020-05-17 02:00:00 13.3 0 Calma 3 Noroeste 0 -- -- 89
2020-05-17 01:00:00 13.5 0 Calma 3 Norte 0 -- -- 88
2020-05-17 00:00:00 13.8 0 Calma 11 Noroeste 0 -- -- 87
2020-05-16 23:00:00 14.8 5 Oeste 20 Oeste 0 -- -- 82
2020-05-16 22:00:00 15.1 9 Oeste 17 Oeste 0 -- -- 81
2020-05-16 21:00:00 17.1 2 Oeste 8 Sudoeste 0 -- -- 71
2020-05-16 20:00:00 18.8 3 Sur 13 Este 0 -- -- 63
2020-05-16 19:00:00 20.3 4 Sudeste 13 Este 0 -- -- 54
2020-05-16 18:00:00 21.3 2 Sudoeste 8 Sudoeste 0 -- -- 53
2020-05-16 17:00:00 21.1 2 Noroeste 12 Este 0 -- -- 52
2020-05-16 16:00:00 21.6 4 Sudeste 14 Nordeste 0 -- -- 53
2020-05-16 15:00:00 20.6 4 Nordeste 11 Nordeste 0 -- -- 53
2020-05-16 14:00:00 19.4 3 Sudeste 8 Este 0 -- -- 55
2020-05-16 13:00:00 16.4 0 Calma 6 Norte 0 -- -- 66
2020-05-16 12:00:00 17.2 3 Norte 12 Este 0 -- -- 65
2020-05-16 11:00:00 17.7 3 Este 12 Este 0 -- -- 65
2020-05-16 10:00:00 13.6 3 Este 10 Norte 0 -- -- 87
2020-05-16 09:00:00 10.5 0 Calma 7 Norte 0 -- -- 97
2020-05-16 08:00:00 8.8 0 Calma 8 Noroeste 0 -- -- 97
2020-05-16 07:00:00 8.6 2 Noroeste 5 Noroeste 0 -- -- 95
2020-05-16 06:00:00 9.2 2 Noroeste 8 Norte 0 -- -- 95
2020-05-16 05:00:00 10 4 Noroeste 6 Noroeste 0 -- -- 94
2020-05-16 04:00:00 10.4 4 Noroeste 6 Noroeste 0 -- -- 96
2020-05-16 03:00:00 10.3 0 Calma 5 Noroeste 0 -- -- 96
2020-05-16 02:00:00 10.5 3 Noroeste 7 Noroeste 0 -- -- 96
2020-05-16 01:00:00 10.5 5 Noroeste 7 Noroeste 0 -- -- 95
2020-05-16 00:00:00 10.6 3 Noroeste 5 Noroeste 0 -- -- 94
2020-05-15 23:00:00 10.7 0 Calma 12 Noroeste 0 -- -- 93
2020-05-15 22:00:00 11.3 5 Oeste 18 Oeste 2.4 -- -- 92
2020-05-15 21:00:00 12.6 4 Noroeste 16 Noroeste 1.4 -- -- 89
2020-05-15 20:00:00 14.7 5 Este 19 Este 0 -- -- 76
2020-05-15 19:00:00 16.2 6 Oeste 13 Oeste 0 -- -- 76
2020-05-15 18:00:00 14.2 5 Oeste 15 Oeste 0 -- -- 86
2020-05-15 17:00:00 16.3 12 Noroeste 19 Oeste 2.6 -- -- 75
2020-05-15 16:00:00 20.2 5 Oeste 13 Sudeste 0 -- -- 54
2020-05-15 15:00:00 18.3 4 Nordeste 12 Nordeste 0 -- -- 57
2020-05-15 14:00:00 18.8 3 Este 13 Sudeste 0 -- -- 56
2020-05-15 13:00:00 18.2 6 Sudeste 15 Sudeste 0 -- -- 60
2020-05-15 12:00:00 16.6 4 Sudeste 13 Sudeste 0 -- -- 71
2020-05-15 11:00:00 14.8 3 Sudeste 18 Este 0 -- -- 76
2020-05-15 10:00:00 12.6 4 Sudeste 15 Este 0 -- -- 87
2020-05-15 09:00:00 10.8 4 Sudeste 10 Sudeste 0 -- -- 96
2020-05-15 08:00:00 10.2 3 Sudeste 10 Sudeste 0 -- -- 97
2020-05-15 07:00:00 10.2 3 Sudeste 12 Sudeste 0 -- -- 97
2020-05-15 06:00:00 10.4 3 Sudeste 13 Sudeste 0 -- -- 97
2020-05-15 05:00:00 10.6 3 Sudeste 18 Este 0.2 -- -- 97
2020-05-15 04:00:00 10.7 3 Sudeste 16 Sudeste 0.4 -- -- 96
2020-05-15 03:00:00 10.7 4 Sudeste 20 Este 0 -- -- 96
2020-05-15 02:00:00 10.6 4 Sudeste 16 Sudeste 0 -- -- 96
2020-05-15 01:00:00 10.6 2 Sur 16 Sudeste 0 -- -- 94
2020-05-15 00:00:00 10.9 4 Sudeste 17 Sudeste 0 -- -- 95
2020-05-14 23:00:00 10.8 2 Sudeste 20 Este 0 -- -- 92
2020-05-14 22:00:00 10.9 4 Sudeste 16 Este 0 -- -- 93
2020-05-14 21:00:00 11.8 3 Sur 13 Sur 0.2 -- -- 92
2020-05-14 20:00:00 12.4 3 Sur 18 Sudoeste 0.2 -- -- 91
2020-05-14 19:00:00 13.8 5 Sur 18 Sur 0 -- -- 80
2020-05-14 18:00:00 12.5 3 Sur 18 Sudoeste 0 -- -- 91
2020-05-14 17:00:00 12.2 3 Sur 17 Sudeste 0.6 -- -- 95
2020-05-14 16:00:00 12.3 5 Sudeste 20 Este 0.4 -- -- 95
2020-05-14 15:00:00 11.3 5 Sur 18 Este 4 -- -- 96
2020-05-14 14:00:00 11.5 3 Sur 17 Sudeste 2 -- -- 94
2020-05-14 13:00:00 12.3 4 Sur 20 Sur 0 -- -- 90
2020-05-14 12:00:00 10.9 3 Sudeste 22 Sudeste 0.2 -- -- 96
2020-05-14 11:00:00 10.5 5 Sudeste 22 Sudeste 0.2 -- -- 97
2020-05-14 10:00:00 10 4 Sudeste 23 Sudeste 0 -- -- 94
2020-05-14 09:00:00 9.5 3 Sudeste 18 Este 0.4 -- -- 97
2020-05-14 08:00:00 9.2 3 Sur 15 Este 0.2 -- -- 98
2020-05-14 07:00:00 8.6 2 Sudeste 12 Sudeste 0 -- -- 98
2020-05-14 06:00:00 7.8 2 Sudeste 17 Sudeste 0 -- -- 96
2020-05-14 05:00:00 8.2 0 Calma 9 Sudeste 0 -- -- 93
2020-05-14 04:00:00 9.4 0 Calma 12 Sudeste 0 -- -- 95
2020-05-14 03:00:00 9.5 2 Sur 11 Sur 0 -- -- 96
2020-05-14 02:00:00 9.5 0 Calma 6 Sudoeste 0 -- -- 96
2020-05-14 01:00:00 9.4 0 Calma 10 Sudoeste 0.2 -- -- 95
2020-05-14 00:00:00 9.4 0 Calma 17 Sudoeste 0 -- -- 93
2020-05-13 23:00:00 9.8 7 Sudoeste 24 Sudoeste 0 -- -- 92
2020-05-13 22:00:00 10.5 5 Sudoeste 17 Sudoeste 0 -- -- 92
2020-05-13 21:00:00 11.4 0 Calma 11 Sudoeste 0.8 -- -- 89
2020-05-13 20:00:00 12.3 4 Sudoeste 30 Oeste 0.2 -- -- 87
2020-05-13 19:00:00 13.3 5 Sur 21 Sudoeste 0.6 -- -- 86
2020-05-13 18:00:00 13.9 2 Sur 22 Este 0.2 -- -- 84
2020-05-13 17:00:00 17.5 4 Sudeste 17 Este 0 -- -- 65
2020-05-13 16:00:00 14.9 2 Sur 14 Sur 0 -- -- 84
2020-05-13 15:00:00 13.9 3 Sudeste 14 Sudeste 1.2 -- -- 91
2020-05-13 14:00:00 15 6 Sudeste 18 Sudeste 0.8 -- -- 90
2020-05-13 13:00:00 15.9 4 Sudeste 18 Sudeste 0 -- -- 73
2020-05-13 12:00:00 14.5 2 Sur 13 Sudeste 0 -- -- 78
2020-05-13 11:00:00 13.8 2 Sur 9 Sudoeste 0 -- -- 81
2020-05-13 10:00:00 12.1 2 Sur 9 Sudeste 0 -- -- 91
2020-05-13 09:00:00 10.1 0 Calma 5 Este 0 -- -- 96
2020-05-13 08:00:00 9.3 0 Calma 4 Oeste 0 -- -- 95
2020-05-13 07:00:00 9.7 0 Calma 5 Sudoeste 0 -- -- 96
2020-05-13 06:00:00 10.2 0 Calma 9 Sudoeste 0 -- -- 93
2020-05-13 05:00:00 10.5 0 Calma 7 Sudoeste 0 -- -- 95
2020-05-13 04:00:00 10.5 3 Sudoeste 8 Sudoeste 0 -- -- 96
2020-05-13 03:00:00 10.4 0 Calma 3 Sudoeste 0 -- -- 96
2020-05-13 02:00:00 10.1 0 Calma 2 Sudeste 0 -- -- 96
2020-05-13 01:00:00 10.1 0 Calma 7 Sudoeste 0 -- -- 94
2020-05-13 00:00:00 10.4 0 Calma 13 Sudoeste 0 -- -- 92
2020-05-12 23:00:00 11 4 Sudoeste 15 Sudoeste 0 -- -- 92
2020-05-12 22:00:00 11.6 4 Sudoeste 15 Sudoeste 0.2 -- -- 91
2020-05-12 21:00:00 12.3 3 Sudoeste 12 Sudoeste 0 -- -- 90
2020-05-12 20:00:00 13.1 5 Sudoeste 16 Sudoeste 0.2 -- -- 86
2020-05-12 19:00:00 13.9 8 Sudoeste 22 Oeste 1 -- -- 87
2020-05-12 18:00:00 14.5 5 Sudoeste 17 Sudoeste 0.2 -- -- 84
2020-05-12 17:00:00 14.6 5 Sudoeste 12 Oeste 0.8 -- -- 84
2020-05-12 16:00:00 14.1 3 Sudoeste 18 Sudoeste 2.4 -- -- 82
2020-05-12 15:00:00 16.6 2 Sur 18 Sudeste 0 -- -- 66
2020-05-12 14:00:00 15.2 5 Este 20 Sudeste 0 -- -- 74
2020-05-12 13:00:00 13.3 8 Este 24 Este 0 -- -- 79
2020-05-12 12:00:00 12.4 2 Sudeste 13 Sudoeste 0 -- -- 79
2020-05-12 11:00:00 12 3 Sur 18 Sudoeste 0 -- -- 86
2020-05-12 10:00:00 12.1 4 Sudoeste 15 Sudoeste 0 -- -- 92
2020-05-12 09:00:00 11.7 0 Calma 8 Este 0 -- -- 96
2020-05-12 08:00:00 11.1 0 Calma 5 Sudeste 0 -- -- 97
2020-05-12 07:00:00 10.7 0 Calma 3 Nordeste 0 -- -- 97
2020-05-12 06:00:00 10.3 0 Calma 2 Sudeste 0 -- -- 97
2020-05-12 05:00:00 9.7 0 Calma 4 Noroeste 0 -- -- 95
2020-05-12 04:00:00 9.6 0 Calma 3 Oeste 0 -- -- 92
2020-05-12 03:00:00 10.5 0 Calma 4 Noroeste 0 -- -- 90
2020-05-12 02:00:00 11.6 0 Calma 4 Sudeste 0 -- -- 89
2020-05-12 01:00:00 12.3 0 Calma 6 Sudoeste 0 -- -- 88
2020-05-12 00:00:00 12.9 2 Sur 9 Oeste 0 -- -- 86
2020-05-11 23:00:00 13.4 0 Calma 12 Sudoeste 0 -- -- 87
2020-05-11 22:00:00 14.5 2 Sur 6 Oeste 0 -- -- 83
2020-05-11 21:00:00 15.7 0 Calma 11 Sur 0 -- -- 76
2020-05-11 20:00:00 16.3 3 Sur 21 Sudoeste 0 -- -- 72
2020-05-11 19:00:00 16.8 7 Sudoeste 21 Oeste 0 -- -- 70
2020-05-11 18:00:00 17.1 6 Sur 28 Sudoeste 0 -- -- 71
2020-05-11 17:00:00 17.7 5 Sur 27 Sudoeste 0 -- -- 69
2020-05-11 16:00:00 19 7 Sur 28 Sudoeste 0.2 -- -- 62
2020-05-11 15:00:00 18.8 8 Sudoeste 31 Sudoeste 0 -- -- 71
2020-05-11 14:00:00 18.6 12 Sudoeste 31 Sudoeste 0 -- -- 69
2020-05-11 13:00:00 16.5 10 Sudoeste 33 Sudoeste 1.2 -- -- 78
2020-05-11 12:00:00 18.2 13 Sudoeste 32 Sudoeste 0 -- -- 73
2020-05-11 11:00:00 15.8 12 Sudoeste 32 Oeste 0 -- -- 82
2020-05-11 10:00:00 13 10 Oeste 29 Oeste 0 -- -- 94
2020-05-11 09:00:00 11.7 10 Oeste 41 Oeste 7.4 -- -- 96
2020-05-11 08:00:00 12.4 7 Sur 32 Sudoeste 0.2 -- -- 96
2020-05-11 07:00:00 12.3 10 Sudoeste 27 Sur 0.8 -- -- 96
2020-05-11 06:00:00 12.1 5 Sur 23 Sudoeste 0.2 -- -- 96
2020-05-11 05:00:00 11.8 3 Sur 17 Sudoeste 0.2 -- -- 94
2020-05-11 04:00:00 11.9 5 Sudoeste 17 Sudoeste 0 -- -- 89
2020-05-11 03:00:00 11.7 5 Oeste 16 Sudoeste 0 -- -- 89
2020-05-11 02:00:00 11.5 7 Sudoeste 15 Sudoeste 0 -- -- 89
2020-05-11 01:00:00 11.7 10 Oeste 22 Oeste 0 -- -- 85
2020-05-11 00:00:00 12.3 9 Oeste 24 Oeste 0 -- -- 83
2020-05-10 23:00:00 13 8 Oeste 19 Sudoeste 0 -- -- 83
2020-05-10 22:00:00 13.3 11 Oeste 24 Sudoeste 0 -- -- 79
2020-05-10 21:00:00 14.2 13 Oeste 32 Sudoeste 0 -- -- 72
2020-05-10 20:00:00 15.4 11 Oeste 27 Oeste 0 -- -- 75
2020-05-10 19:00:00 16.1 10 Oeste 31 Oeste 0 -- -- 77
2020-05-10 18:00:00 16.3 15 Oeste 31 Oeste 0 -- -- 71
2020-05-10 17:00:00 16 11 Oeste 23 Oeste 2.2 -- -- 85
2020-05-10 16:00:00 17 7 Oeste 27 Oeste 0.2 -- -- 76
2020-05-10 15:00:00 18.2 10 Sudoeste 30 Oeste 0 -- -- 65
2020-05-10 14:00:00 17.4 7 Oeste 27 Oeste 0 -- -- 69
2020-05-10 13:00:00 15.9 9 Oeste 23 Noroeste 0 -- -- 80
2020-05-10 12:00:00 12.8 9 Sudoeste 26 Oeste 0.2 -- -- 89
2020-05-10 11:00:00 13.1 6 Sudoeste 17 Sudoeste 0 -- -- 91
2020-05-10 10:00:00 12.2 7 Oeste 22 Oeste 0 -- -- 96
2020-05-10 09:00:00 10.8 4 Sudoeste 10 Sudoeste 2.8 -- -- 98
2020-05-10 08:00:00 9.8 2 Sudoeste 9 Sudoeste 1.4 -- -- 97
2020-05-10 07:00:00 9.4 3 Oeste 14 Sudoeste 0 -- -- 97
2020-05-10 06:00:00 9.2 3 Oeste 10 Sudoeste 0 -- -- 97
2020-05-10 05:00:00 9.2 5 Oeste 13 Noroeste 0 -- -- 97
2020-05-10 04:00:00 9.5 5 Oeste 13 Noroeste 0 -- -- 97
2020-05-10 03:00:00 9.7 6 Oeste 12 Noroeste 0 -- -- 96
2020-05-10 02:00:00 10.3 5 Oeste 13 Oeste 0 -- -- 95
2020-05-10 01:00:00 11 5 Oeste 20 Noroeste 0 -- -- 96
2020-05-10 00:00:00 11.8 6 Oeste 13 Oeste 0.2 -- -- 94
2020-05-09 23:00:00 12.3 5 Oeste 18 Oeste 5 -- -- 94
2020-05-09 22:00:00 12.7 2 Oeste 7 Oeste 0 -- -- 94
2020-05-09 21:00:00 13.3 2 Noroeste 10 Sudoeste 0 -- -- 91
2020-05-09 20:00:00 13.2 3 Sur 14 Oeste 3.2 -- -- 94
2020-05-09 19:00:00 13.1 2 Sur 19 Sudoeste 7.4 -- -- 93
2020-05-09 18:00:00 13.9 6 Sur 35 Sudoeste 4.8 -- -- 88
2020-05-09 17:00:00 17.7 5 Sudoeste 23 Sudoeste 0 -- -- 63
2020-05-09 16:00:00 19.5 7 Sur 24 Sudoeste 0 -- -- 52
2020-05-09 15:00:00 20.5 5 Sur 26 Oeste 0 -- -- 49
2020-05-09 14:00:00 20.8 5 Sur 23 Sudoeste 0 -- -- 49
2020-05-09 13:00:00 20 6 Sudoeste 20 Oeste 0 -- -- 52
2020-05-09 12:00:00 19.3 4 Sur 19 Sudoeste 0 -- -- 58
2020-05-09 11:00:00 16.8 3 Sur 11 Este 0 -- -- 70
2020-05-09 10:00:00 14 2 Sur 7 Sudeste 0 -- -- 82
2020-05-09 09:00:00 12.6 0 Calma 6 Sudeste 0 -- -- 91
2020-05-09 08:00:00 11.8 0 Calma 5 Sudeste 0 -- -- 93
2020-05-09 07:00:00 11.4 0 Calma 8 Este 0 -- -- 91
2020-05-09 06:00:00 11.9 0 Calma 5 Sudeste 0 -- -- 92
2020-05-09 05:00:00 11.9 0 Calma 6 Sudoeste 0 -- -- 89
2020-05-09 04:00:00 13.1 0 Calma 8 Este 0 -- -- 89
2020-05-09 03:00:00 13.3 0 Calma 8 Sudoeste 0 -- -- 91
2020-05-09 02:00:00 13.4 0 Calma 8 Sudoeste 0 -- -- 91
2020-05-09 01:00:00 13 2 Sudoeste 10 Sudoeste 0 -- -- 91
2020-05-09 00:00:00 13.7 0 Calma 8 Sudoeste 0 -- -- 85
2020-05-08 23:00:00 14.7 4 Oeste 13 Sudoeste 0 -- -- 80
2020-05-08 22:00:00 16.3 4 Oeste 10 Sudoeste 0 -- -- 72
2020-05-08 21:00:00 18.4 2 Sudoeste 14 Sudoeste 0 -- -- 60
2020-05-08 20:00:00 20.4 3 Sur 14 Sudoeste 0 -- -- 55
2020-05-08 19:00:00 22.9 6 Sudoeste 20 Sudoeste 0 -- -- 51
2020-05-08 18:00:00 24.3 6 Sudoeste 23 Sudoeste 0 -- -- 49
2020-05-08 17:00:00 24.1 4 Sur 25 Sudoeste 0 -- -- 50
2020-05-08 16:00:00 24 6 Sur 23 Sudoeste 0 -- -- 48
2020-05-08 15:00:00 24.2 4 Sur 27 Sudoeste 0 -- -- 50
2020-05-08 14:00:00 23.9 5 Sur 21 Sudoeste 0 -- -- 50
2020-05-08 13:00:00 24 5 Sudeste 27 Sudoeste 0 -- -- 48
2020-05-08 12:00:00 23.6 4 Sur 12 Oeste 0 -- -- 52
2020-05-08 11:00:00 21.1 3 Sur 10 Oeste 0 -- -- 57
2020-05-08 10:00:00 16.6 3 Sur 10 Sudoeste 0 -- -- 70
2020-05-08 09:00:00 13.6 0 Calma 4 Sudeste 0 -- -- 80
2020-05-08 08:00:00 11.6 0 Calma 2 Oeste 0 -- -- 88
2020-05-08 07:00:00 11.8 0 Calma 3 Oeste 0 -- -- 84
2020-05-08 06:00:00 13 0 Calma 7 Sudoeste 0 -- -- 79
2020-05-08 05:00:00 13.8 0 Calma 12 Sudoeste 0 -- -- 76
2020-05-08 04:00:00 14.5 4 Sudoeste 11 Oeste 0 -- -- 73
2020-05-08 03:00:00 15.6 3 Noroeste 10 Sudoeste 0 -- -- 79
2020-05-08 02:00:00 16.8 0 Calma 14 Oeste 0 -- -- 76
2020-05-08 01:00:00 17.7 3 Sur 15 Sudoeste 0 -- -- 76
2020-05-08 00:00:00 18.7 5 Sudoeste 15 Oeste 0 -- -- 70
2020-05-07 23:00:00 19.5 3 Sur 9 Sudoeste 0 -- -- 64
2020-05-07 22:00:00 20.9 3 Oeste 15 Sudoeste 0 -- -- 66
2020-05-07 21:00:00 22.8 0 Calma 9 Este 0 -- -- 54
2020-05-07 20:00:00 24.4 3 Sur 12 Sudeste 0 -- -- 48
2020-05-07 19:00:00 26.7 4 Sur 14 Sur 0 -- -- 39
2020-05-07 18:00:00 27.8 7 Sudoeste 19 Oeste 0 -- -- 37
2020-05-07 17:00:00 27.5 4 Sur 13 Este 0 -- -- 40
2020-05-07 16:00:00 26.9 4 Sur 14 Sudeste 0 -- -- 43
2020-05-07 15:00:00 26.5 5 Sudeste 19 Sudeste 0 -- -- 47
2020-05-07 14:00:00 25.1 5 Sudeste 21 Este 0 -- -- 49
2020-05-07 13:00:00 25.7 6 Este 15 Este 0 -- -- 48
2020-05-07 12:00:00 23.9 5 Este 14 Este 0 -- -- 51
2020-05-07 11:00:00 21.2 4 Este 13 Nordeste 0 -- -- 53
2020-05-07 10:00:00 18.9 3 Sudeste 11 Sudeste 0 -- -- 59
2020-05-07 09:00:00 15.8 2 Norte 10 Este 0 -- -- 63
2020-05-07 08:00:00 13.6 0 Calma 2 Sudeste 0 -- -- 77
2020-05-07 07:00:00 13.5 0 Calma 2 Norte 0 -- -- 75
2020-05-07 06:00:00 13.5 0 Calma 0 Calma 0 -- -- 75
2020-05-07 05:00:00 14 0 Calma 2 Noroeste 0 -- -- 70
2020-05-07 04:00:00 14.7 0 Calma 3 Norte 0 -- -- 66
2020-05-07 03:00:00 15.3 0 Calma 5 Oeste 0 -- -- 63
2020-05-07 02:00:00 16.6 0 Calma 16 Norte 0 -- -- 57
2020-05-07 01:00:00 17.7 9 Norte 19 Norte 0 -- -- 52
2020-05-07 00:00:00 18 8 Nordeste 18 Nordeste 0 -- -- 51
2020-05-06 23:00:00 18.9 6 Norte 16 Nordeste 0 -- -- 49
2020-05-06 22:00:00 19.1 4 Norte 12 Norte 0 -- -- 50
2020-05-06 21:00:00 20.9 5 Noroeste 13 Nordeste 0 -- -- 47
2020-05-06 20:00:00 22.7 5 Norte 17 Nordeste 0 -- -- 41
2020-05-06 19:00:00 24.4 7 Nordeste 18 Noroeste 0 -- -- 41
2020-05-06 18:00:00 25.1 7 Nordeste 19 Este 0 -- -- 39
2020-05-06 17:00:00 24.8 9 Norte 20 Norte 0 -- -- 41
2020-05-06 16:00:00 24.5 7 Norte 19 Este 0 -- -- 41
2020-05-06 15:00:00 24 7 Norte 19 Nordeste 0 -- -- 42
2020-05-06 14:00:00 24 7 Norte 20 Nordeste 0 -- -- 49
2020-05-06 13:00:00 23 8 Nordeste 17 Nordeste 0 -- -- 52
2020-05-06 12:00:00 22.1 12 Norte 19 Norte 0 -- -- 49
2020-05-06 11:00:00 20.5 9 Norte 16 Norte 0 -- -- 52
2020-05-06 10:00:00 16.4 8 Nordeste 13 Este 0 -- -- 70
2020-05-06 09:00:00 14.1 3 Nordeste 15 Norte 0 -- -- 78
2020-05-06 08:00:00 12.2 6 Norte 16 Norte 0 -- -- 84
2020-05-06 07:00:00 11.5 6 Norte 10 Noroeste 0 -- -- 88
2020-05-06 06:00:00 11.1 3 Noroeste 9 Norte 0 -- -- 87
2020-05-06 05:00:00 11.7 0 Calma 5 Oeste 0 -- -- 83
2020-05-06 04:00:00 12.5 3 Noroeste 11 Oeste 0 -- -- 77
2020-05-06 03:00:00 12.8 4 Noroeste 14 Oeste 0 -- -- 74
2020-05-06 02:00:00 13 6 Noroeste 10 Oeste 0 -- -- 69
2020-05-06 01:00:00 14 3 Noroeste 11 Oeste 0 -- -- 65
2020-05-06 00:00:00 15 5 Noroeste 15 Noroeste 0 -- -- 61
2020-05-05 23:00:00 16 8 Noroeste 27 Noroeste 0 -- -- 59
2020-05-05 22:00:00 17.4 12 Noroeste 22 Noroeste 0 -- -- 53
2020-05-05 21:00:00 20.1 8 Noroeste 15 Noroeste 0 -- -- 48
2020-05-05 20:00:00 23.2 9 Noroeste 19 Noroeste 0 -- -- 43
2020-05-05 19:00:00 25.4 8 Noroeste 15 Noroeste 0 -- -- 39
2020-05-05 18:00:00 25.5 9 Oeste 16 Sudoeste 0 -- -- 37
2020-05-05 17:00:00 25.1 4 Oeste 17 Norte 0 -- -- 32
2020-05-05 16:00:00 24.5 8 Noroeste 22 Noroeste 0 -- -- 34
2020-05-05 15:00:00 24.6 7 Oeste 17 Sudoeste 0 -- -- 36
2020-05-05 14:00:00 24.2 3 Sur 17 Sudoeste 0 -- -- 37
2020-05-05 13:00:00 23.4 3 Sur 12 Sudoeste 0 -- -- 46
2020-05-05 12:00:00 22 3 Este 11 Sudeste 0 -- -- 50
2020-05-05 11:00:00 19.2 2 Este 7 Nordeste 0 -- -- 58
2020-05-05 10:00:00 14.4 2 Sudeste 6 Este 0 -- -- 84
2020-05-05 09:00:00 12 0 Calma 7 Noroeste 0 -- -- 92
2020-05-05 08:00:00 10.9 4 Norte 12 Noroeste 0 -- -- 95
2020-05-05 07:00:00 10.7 0 Calma 13 Oeste 0 -- -- 93
2020-05-05 06:00:00 10.7 3 Norte 8 Noroeste 0 -- -- 92
2020-05-05 05:00:00 11.3 0 Calma 5 Noroeste 0 -- -- 89
2020-05-05 04:00:00 12.3 3 Noroeste 13 Norte 0 -- -- 84
2020-05-05 03:00:00 13.3 8 Oeste 21 Oeste 0 -- -- 82
2020-05-05 02:00:00 13.9 12 Oeste 26 Oeste 0 -- -- 81
2020-05-05 01:00:00 15.1 8 Oeste 17 Noroeste 0 -- -- 86
2020-05-05 00:00:00 16.1 0 Calma 14 Sudoeste 0 -- -- 87